createdAt,value
2018-05-04T00:02:15.503Z,99147.26
2018-05-04T00:04:44.574Z,99151.58
2018-05-04T00:07:12.872Z,99150.45
2018-05-04T00:09:41.127Z,99149.73
2018-05-04T00:12:09.401Z,99153.84
2018-05-04T00:14:37.933Z,99147.86
2018-05-04T00:17:06.218Z,99151.48
2018-05-04T00:19:34.482Z,99151.38
2018-05-04T00:22:02.766Z,99154.75
2018-05-04T00:24:31.025Z,99148.83
2018-05-04T00:26:59.318Z,99143.64
2018-05-04T00:29:27.597Z,99140.35
2018-05-04T00:31:55.873Z,99145.65
2018-05-04T00:34:24.163Z,99143.02
2018-05-04T00:36:52.408Z,99137.89
2018-05-04T00:39:20.747Z,99143.25
2018-05-04T00:41:49.054Z,99148.56
2018-05-04T00:44:17.338Z,99146.98
2018-05-04T00:46:45.602Z,99142.23
2018-05-04T00:49:13.884Z,99138.34
2018-05-04T00:51:42.125Z,99138.20
2018-05-04T00:54:22.289Z,99139.98
2018-05-04T00:56:50.583Z,99135.59
2018-05-04T00:59:18.862Z,99139.08
2018-05-04T01:01:47.122Z,99126.72
2018-05-04T01:04:15.390Z,99131.41
2018-05-04T01:06:43.694Z,99130.27
2018-05-04T01:09:11.983Z,99137.95
2018-05-04T01:11:40.264Z,99135.30
2018-05-04T01:14:08.555Z,99126.95
2018-05-04T01:16:36.801Z,99124.51
2018-05-04T01:19:05.126Z,99120.98
2018-05-04T01:21:33.401Z,99123.65
2018-05-04T01:24:01.745Z,99127.24
2018-05-04T01:26:30.001Z,99127.00
2018-05-04T01:28:58.304Z,99138.04
2018-05-04T01:31:26.710Z,99132.44
2018-05-04T01:33:54.970Z,99134.47
2018-05-04T01:36:23.252Z,99127.08
2018-05-04T01:38:51.522Z,99130.94
2018-05-04T01:41:22.186Z,99120.87
2018-05-04T01:43:51.176Z,99118.48
2018-05-04T01:46:19.529Z,99128.81
2018-05-04T01:48:47.921Z,99125.13
2018-05-04T01:51:16.193Z,99127.38
2018-05-04T01:53:44.434Z,99132.55
2018-05-04T01:56:12.729Z,99136.42
2018-05-04T01:58:40.990Z,99134.09
2018-05-04T02:01:09.272Z,99133.33
2018-05-04T02:03:37.531Z,99133.70
2018-05-04T02:06:06.017Z,99123.41
2018-05-04T02:08:34.294Z,99136.09
2018-05-04T02:11:02.560Z,99138.47
2018-05-04T02:13:30.852Z,99136.26
2018-05-04T02:16:00.121Z,99134.78
2018-05-04T02:18:28.439Z,99133.88
2018-05-04T02:20:56.777Z,99130.68
2018-05-04T02:23:25.067Z,99134.25
2018-05-04T02:25:53.351Z,99123.00
2018-05-04T02:28:21.706Z,99120.75
2018-05-04T02:30:49.950Z,99112.41
2018-05-04T02:33:18.255Z,99125.14
2018-05-04T02:35:46.512Z,99117.74
2018-05-04T02:38:14.794Z,99121.16
2018-05-04T02:40:49.797Z,99125.15
2018-05-04T02:43:18.096Z,99120.76
2018-05-04T02:45:46.450Z,99125.79
2018-05-04T02:48:14.757Z,99125.16
2018-05-04T02:50:43.004Z,99131.87
2018-05-04T02:53:11.319Z,99135.20
2018-05-04T02:55:39.590Z,99130.70
2018-05-04T02:58:07.939Z,99133.61
2018-05-04T03:00:36.203Z,99128.19
2018-05-04T03:03:04.825Z,99131.34
2018-05-04T03:05:33.109Z,99135.32
2018-05-04T03:08:01.586Z,99137.55
2018-05-04T03:10:29.892Z,99141.80
2018-05-04T03:12:58.151Z,99135.42
2018-05-04T03:15:26.458Z,99124.75
2018-05-04T03:17:54.802Z,99133.20
2018-05-04T03:20:23.089Z,99139.53
2018-05-04T03:22:51.363Z,99142.20
2018-05-04T03:25:19.664Z,99135.28
2018-05-04T03:27:47.918Z,99135.98
2018-05-04T03:30:16.217Z,99133.57
2018-05-04T03:32:44.484Z,99135.55
2018-05-04T03:35:12.954Z,99146.64
2018-05-04T03:37:41.218Z,99149.14
2018-05-04T03:40:09.519Z,99148.09
2018-05-04T03:42:37.908Z,99149.94
2018-05-04T03:45:06.253Z,99153.77
2018-05-04T03:47:34.518Z,99162.78
2018-05-04T03:50:02.790Z,99163.42
2018-05-04T03:52:31.119Z,99165.91
2018-05-04T03:54:59.410Z,99166.65
2018-05-04T03:57:39.546Z,99168.52
2018-05-04T04:00:19.471Z,99165.47
2018-05-04T04:03:16.168Z,99175.91
2018-05-04T04:05:44.566Z,99164.17
2018-05-04T04:08:12.843Z,99167.50
2018-05-04T04:10:42.005Z,99165.09
2018-05-04T04:13:10.338Z,99165.34
2018-05-04T04:15:38.615Z,99167.32
2018-05-04T04:18:06.972Z,99171.00
2018-05-04T04:20:35.295Z,99173.09
2018-05-04T04:23:03.588Z,99174.97
2018-05-04T04:25:32.073Z,99176.67
2018-05-04T04:28:00.384Z,99181.66
2018-05-04T04:30:28.714Z,99183.18
2018-05-04T04:32:57.111Z,99187.23
2018-05-04T04:35:25.976Z,99187.36
2018-05-04T04:37:54.488Z,99191.44
2018-05-04T04:40:22.806Z,99198.48
2018-05-04T04:42:52.466Z,99203.03
2018-05-04T04:45:20.793Z,99202.69
2018-05-04T04:47:49.107Z,99199.80
2018-05-04T04:50:17.389Z,99205.00
2018-05-04T04:52:45.778Z,99210.28
2018-05-04T04:55:14.590Z,99215.82
2018-05-04T04:57:42.859Z,99220.83
2018-05-04T05:00:11.149Z,99220.72
2018-05-04T05:02:39.446Z,99208.78
2018-05-04T05:05:07.951Z,99220.21
2018-05-04T05:07:36.274Z,99227.77
2018-05-04T05:10:04.550Z,99223.82
2018-05-04T05:12:32.811Z,99225.04
2018-05-04T05:15:01.132Z,99222.91
2018-05-04T05:17:29.386Z,99229.78
2018-05-04T05:19:57.702Z,99224.41
2018-05-04T05:22:27.160Z,99225.59
2018-05-04T05:24:55.449Z,99228.38
2018-05-04T05:27:23.774Z,99228.97
2018-05-04T05:29:52.123Z,99231.77
2018-05-04T05:32:20.464Z,99228.22
2018-05-04T05:34:48.722Z,99225.58
2018-05-04T05:37:17.096Z,99229.16
2018-05-04T05:39:45.377Z,99228.92
2018-05-04T05:42:13.683Z,99220.94
2018-05-04T05:44:41.984Z,99227.73
2018-05-04T05:47:19.849Z,99217.53
2018-05-04T05:49:49.147Z,99222.57
2018-05-04T05:52:17.417Z,99225.48
2018-05-04T05:54:45.695Z,99234.62
2018-05-04T05:57:14.030Z,99231.30
2018-05-04T05:59:43.237Z,99227.20
2018-05-04T06:02:11.550Z,99228.55
2018-05-04T06:04:39.822Z,99217.41
2018-05-04T06:07:08.205Z,99211.71
2018-05-04T06:09:36.442Z,99210.66
2018-05-04T06:12:04.852Z,99210.64
2018-05-04T06:14:33.154Z,99203.09
2018-05-04T06:17:01.437Z,99198.83
2018-05-04T06:19:29.786Z,99205.98
2018-05-04T06:21:58.086Z,99206.86
2018-05-04T06:24:26.357Z,99197.70
2018-05-04T06:26:54.746Z,99206.52
2018-05-04T06:29:23.060Z,99203.96
2018-05-04T06:31:51.545Z,99210.42
2018-05-04T06:34:19.851Z,99205.58
2018-05-04T06:36:49.057Z,99219.25
2018-05-04T06:39:17.546Z,99211.91
2018-05-04T06:41:45.820Z,99209.59
2018-05-04T06:44:14.139Z,99213.27
2018-05-04T06:46:42.932Z,99211.75
2018-05-04T06:49:11.221Z,99216.76
2018-05-04T06:51:39.716Z,99215.63
2018-05-04T06:54:08.026Z,99218.39
2018-05-04T06:56:36.395Z,99215.37
2018-05-04T06:59:04.678Z,99221.13
2018-05-04T07:01:33.890Z,99219.18
2018-05-04T07:04:02.183Z,99222.44
2018-05-04T07:06:30.537Z,99215.42
2018-05-04T07:08:58.949Z,99217.97
2018-05-04T07:11:27.257Z,99218.78
2018-05-04T07:13:55.576Z,99232.03
2018-05-04T07:16:23.944Z,99216.14
2018-05-04T07:18:52.239Z,99226.63
2018-05-04T07:21:20.626Z,99234.19
2018-05-04T07:23:48.893Z,99209.45
2018-05-04T07:26:17.188Z,99206.77
2018-05-04T07:28:45.521Z,99200.34
2018-05-04T07:31:13.730Z,99200.02
2018-05-04T07:33:42.001Z,99197.61
2018-05-04T07:36:10.290Z,99195.69
2018-05-04T07:38:38.576Z,99192.20
2018-05-04T07:41:07.034Z,99190.57
2018-05-04T07:43:35.320Z,99184.82
2018-05-04T07:46:03.615Z,99185.61
2018-05-04T07:48:32.697Z,99185.20
2018-05-04T07:51:01.649Z,99198.00
2018-05-04T07:53:29.958Z,99192.24
2018-05-04T07:55:59.162Z,99196.17
2018-05-04T07:58:27.503Z,99195.63
2018-05-04T08:00:56.030Z,99194.30
2018-05-04T08:03:24.298Z,99203.33
2018-05-04T08:05:52.584Z,99206.56
2018-05-04T08:08:20.902Z,99208.26
2018-05-04T08:10:50.074Z,99206.42
2018-05-04T08:13:19.268Z,99211.95
2018-05-04T08:15:47.556Z,99211.55
2018-05-04T08:18:15.830Z,99207.02
2018-05-04T08:20:44.177Z,99211.67
2018-05-04T08:23:12.506Z,99207.39
2018-05-04T08:25:40.748Z,99215.70
2018-05-04T08:28:09.847Z,99220.64
2018-05-04T08:30:38.201Z,99229.09
2018-05-04T08:33:06.771Z,99224.00
2018-05-04T08:35:35.070Z,99207.64
2018-05-04T08:38:03.550Z,99219.65
2018-05-04T08:40:31.869Z,99217.09
2018-05-04T08:43:00.644Z,99215.29
2018-05-04T08:45:29.094Z,99225.58
2018-05-04T08:47:57.375Z,99234.91
2018-05-04T08:50:25.817Z,99227.25
2018-05-04T08:52:54.344Z,99229.10
2018-05-04T08:55:22.617Z,99226.02
2018-05-04T08:57:52.127Z,99221.12
2018-05-04T09:00:20.401Z,99220.13
2018-05-04T09:02:49.313Z,99218.29
2018-05-04T09:05:18.711Z,99226.23
2018-05-04T09:07:46.835Z,99218.74
2018-05-04T09:10:15.154Z,99219.82
2018-05-04T09:12:43.486Z,99223.59
2018-05-04T09:15:11.911Z,99220.84
2018-05-04T09:17:40.204Z,99217.64
2018-05-04T09:20:08.531Z,99220.61
2018-05-04T09:22:37.027Z,99222.36
2018-05-04T09:25:05.490Z,99217.03
2018-05-04T09:27:33.801Z,99215.05
2018-05-04T09:30:02.768Z,99211.09
2018-05-04T09:32:31.162Z,99219.77
2018-05-04T09:34:59.571Z,99223.46
2018-05-04T09:37:27.891Z,99215.37
2018-05-04T09:39:56.387Z,99222.89
2018-05-04T09:42:24.795Z,99222.42
2018-05-04T09:44:54.644Z,99224.68
2018-05-04T09:47:22.979Z,99229.35
2018-05-04T09:49:51.360Z,99225.45
2018-05-04T09:52:19.802Z,99218.27
2018-05-04T09:54:48.134Z,99209.41
2018-05-04T09:57:16.471Z,99209.05
2018-05-04T09:59:44.870Z,99193.34
2018-05-04T10:02:13.356Z,99203.13
2018-05-04T10:04:41.609Z,99199.73
2018-05-04T10:07:10.420Z,99216.47
2018-05-04T10:09:38.840Z,99198.44
2018-05-04T10:12:07.995Z,99196.69
2018-05-04T10:14:36.267Z,99193.55
2018-05-04T10:17:04.696Z,99209.08
2018-05-04T10:19:32.946Z,99189.04
2018-05-04T10:22:01.331Z,99180.77
2018-05-04T10:24:29.607Z,99181.58
2018-05-04T10:26:57.878Z,99170.70
2018-05-04T10:29:26.721Z,99179.72
2018-05-04T10:31:55.116Z,99175.63
2018-05-04T10:34:23.427Z,99170.66
2018-05-04T10:36:51.852Z,99167.73
2018-05-04T10:39:20.176Z,99165.05
2018-05-04T10:41:48.657Z,99165.20
2018-05-04T10:44:17.044Z,99166.81
2018-05-04T10:46:46.155Z,99160.77
2018-05-04T10:49:14.463Z,99144.08
2018-05-04T10:51:42.777Z,99154.53
2018-05-04T10:54:11.110Z,99149.22
2018-05-04T10:56:39.562Z,99156.40
2018-05-04T10:59:07.982Z,99152.40
2018-05-04T11:01:37.017Z,99151.02
2018-05-04T11:04:05.551Z,99158.02
2018-05-04T11:06:33.915Z,99143.59
2018-05-04T11:09:02.794Z,99142.61
2018-05-04T11:11:31.095Z,99142.17
2018-05-04T11:13:59.398Z,99129.23
2018-05-04T11:16:27.709Z,99129.39
2018-05-04T11:18:55.981Z,99135.67
2018-05-04T11:21:24.306Z,99128.56
2018-05-04T11:23:52.584Z,99127.14
2018-05-04T11:26:20.894Z,99121.77
2018-05-04T11:28:49.167Z,99122.06
2018-05-04T11:31:17.554Z,99133.71
2018-05-04T11:33:45.827Z,99127.13
2018-05-04T11:36:14.154Z,99129.55
2018-05-04T11:38:42.430Z,99133.45
2018-05-04T11:41:10.727Z,99120.34
2018-05-04T11:43:38.997Z,99139.43
2018-05-04T11:46:07.341Z,99132.20
2018-05-04T11:48:35.609Z,99136.02
2018-05-04T11:51:04.011Z,99133.50
2018-05-04T11:53:32.340Z,99136.78
2018-05-04T11:56:00.681Z,99119.83
2018-05-04T11:58:29.554Z,99131.76
2018-05-04T12:00:57.842Z,99129.68
2018-05-04T12:03:26.116Z,99131.13
2018-05-04T12:05:54.386Z,99129.30
2018-05-04T12:08:22.750Z,99129.14
2018-05-04T12:10:51.064Z,99135.38
2018-05-04T12:13:19.370Z,99142.17
2018-05-04T12:15:47.683Z,99137.02
2018-05-04T12:18:15.998Z,99136.21
2018-05-04T12:20:44.302Z,99135.13
2018-05-04T12:23:12.702Z,99146.81
2018-05-04T12:25:41.086Z,99149.45
2018-05-04T12:28:09.374Z,99150.69
2018-05-04T12:30:38.394Z,99151.63
2018-05-04T12:33:06.702Z,99143.78
2018-05-04T12:35:34.968Z,99151.02
2018-05-04T12:38:03.317Z,99157.22
2018-05-04T12:40:31.600Z,99156.88
2018-05-04T12:42:59.978Z,99158.27
2018-05-04T12:45:28.312Z,99144.07
2018-05-04T12:47:56.688Z,99135.25
2018-05-04T12:50:24.949Z,99145.66
2018-05-04T12:52:53.294Z,99139.09
2018-05-04T12:55:21.592Z,99146.38
2018-05-04T12:57:50.479Z,99140.25
2018-05-04T13:00:18.782Z,99142.53
2018-05-04T13:02:47.176Z,99141.10
2018-05-04T13:05:15.487Z,99142.05
2018-05-04T13:07:43.751Z,99122.32
2018-05-04T13:10:12.029Z,99128.56
2018-05-04T13:12:40.326Z,99127.81
2018-05-04T13:15:08.726Z,99133.22
2018-05-04T13:17:36.983Z,99124.70
2018-05-04T13:20:05.359Z,99125.03
2018-05-04T13:22:33.594Z,99129.48
2018-05-04T13:25:01.936Z,99128.64
2018-05-04T13:27:30.178Z,99123.52
2018-05-04T13:29:58.487Z,99123.52
2018-05-04T13:32:26.742Z,99125.66
2018-05-04T13:34:55.449Z,99127.75
2018-05-04T13:37:23.694Z,99121.19
2018-05-04T13:39:52.011Z,99119.69
2018-05-04T13:42:20.363Z,99119.48
2018-05-04T13:44:48.674Z,99115.13
2018-05-04T13:47:16.993Z,99114.91
2018-05-04T13:49:45.356Z,99118.51
2018-05-04T13:52:13.695Z,99117.61
2018-05-04T13:54:41.980Z,99123.88
2018-05-04T13:57:10.249Z,99115.63
2018-05-04T13:59:38.522Z,99125.40
2018-05-04T14:02:06.798Z,99107.90
2018-05-04T14:04:35.128Z,99110.14
2018-05-04T14:07:03.436Z,99112.76
2018-05-04T14:09:31.765Z,99121.14
2018-05-04T14:12:00.110Z,99126.80
2018-05-04T14:14:28.890Z,99119.68
2018-05-04T14:16:57.166Z,99099.73
2018-05-04T14:19:25.438Z,99126.82
2018-05-04T14:21:53.734Z,99117.94
2018-05-04T14:24:22.079Z,99106.88
2018-05-04T14:26:50.737Z,99116.59
2018-05-04T14:29:19.045Z,99105.81
2018-05-04T14:31:47.389Z,99111.39
2018-05-04T14:34:15.704Z,99111.11
2018-05-04T14:36:44.005Z,99085.73
2018-05-04T14:39:12.351Z,99116.20
2018-05-04T14:41:41.217Z,99111.52
2018-05-04T14:44:09.491Z,99108.91
2018-05-04T14:46:37.763Z,99108.70
2018-05-04T14:49:06.051Z,99108.26
2018-05-04T14:51:34.334Z,99116.48
2018-05-04T14:54:02.628Z,99120.11
2018-05-04T14:56:30.916Z,99118.05
2018-05-04T14:58:59.242Z,99095.41
2018-05-04T15:01:27.533Z,99109.97
2018-05-04T15:03:55.879Z,99114.16
2018-05-04T15:06:24.176Z,99114.91
2018-05-04T15:08:52.466Z,99111.52
2018-05-04T15:11:20.761Z,99118.03
2018-05-04T15:13:49.059Z,99118.48
2018-05-04T15:16:17.389Z,99117.64
2018-05-04T15:18:46.436Z,99114.73
2018-05-04T15:21:14.849Z,99121.35
2018-05-04T15:23:43.157Z,99120.62
2018-05-04T15:26:11.434Z,99115.12
2018-05-04T15:28:39.771Z,99116.77
2018-05-04T15:31:08.045Z,99113.38
2018-05-04T15:33:36.322Z,99125.31
2018-05-04T15:36:04.612Z,99118.79
2018-05-04T15:38:32.898Z,99119.53
2018-05-04T15:41:01.199Z,99117.91
2018-05-04T15:43:29.470Z,99117.80
2018-05-04T15:45:57.849Z,99127.16
2018-05-04T15:51:39.128Z,99119.20
2018-05-04T15:54:07.447Z,99112.69
2018-05-04T15:56:36.456Z,99116.27
2018-05-04T15:59:04.741Z,99123.72
2018-05-04T16:01:33.960Z,99118.38
2018-05-04T16:04:02.247Z,99124.20
2018-05-04T16:06:30.530Z,99121.19
2018-05-04T16:08:58.825Z,99125.65
2018-05-04T16:11:27.272Z,99126.33
2018-05-04T16:13:55.546Z,99126.35
2018-05-04T16:16:23.927Z,99127.94
2018-05-04T16:18:52.158Z,99126.95
2018-05-04T16:21:20.555Z,99116.59
2018-05-04T16:23:48.836Z,99127.36
2018-05-04T16:26:17.129Z,99134.36
2018-05-04T16:28:45.636Z,99124.72
2018-05-04T16:31:13.876Z,99132.59
2018-05-04T16:33:42.227Z,99133.33
2018-05-04T16:36:10.529Z,99119.23
2018-05-04T16:38:38.863Z,99139.50
2018-05-04T16:41:07.111Z,99142.16
2018-05-04T16:43:35.401Z,99133.50
2018-05-04T16:46:03.700Z,99140.50
2018-05-04T16:48:37.724Z,99144.44
2018-05-04T16:51:06.088Z,99134.45
2018-05-04T16:53:34.529Z,99144.80
2018-05-04T16:56:02.847Z,99153.84
2018-05-04T16:58:31.117Z,99153.40
2018-05-04T17:00:59.395Z,99149.36
2018-05-04T17:03:27.687Z,99148.28
2018-05-04T17:05:55.941Z,99153.41
2018-05-04T17:08:24.226Z,99158.96
2018-05-04T17:10:53.339Z,99154.73
2018-05-04T17:13:21.794Z,99161.92
2018-05-04T17:15:50.116Z,99160.52
2018-05-04T17:18:18.366Z,99163.55
2018-05-04T17:20:46.678Z,99155.32
2018-05-04T17:23:14.970Z,99162.47
2018-05-04T17:25:43.295Z,99160.13
2018-05-04T17:28:11.619Z,99159.73
2018-05-04T17:30:40.212Z,99164.14
2018-05-04T17:33:08.481Z,99162.46
2018-05-04T17:35:36.767Z,99166.05
2018-05-04T17:38:05.666Z,99167.72
2018-05-04T17:40:34.145Z,99168.41
2018-05-04T17:43:02.328Z,99171.20
2018-05-04T17:45:30.598Z,99171.64
2018-05-04T17:47:58.872Z,99178.27
2018-05-04T17:50:27.182Z,99176.86
2018-05-04T17:52:55.448Z,99178.42
2018-05-04T17:55:23.824Z,99181.12
2018-05-04T17:57:52.983Z,99180.29
2018-05-04T18:00:21.310Z,99186.86
2018-05-04T18:02:49.640Z,99184.91
2018-05-04T18:05:17.902Z,99192.09
2018-05-04T18:07:46.175Z,99188.37
2018-05-04T18:10:14.585Z,99199.80
2018-05-04T18:12:42.798Z,99197.48
2018-05-04T18:15:11.680Z,99189.09
2018-05-04T18:17:40.003Z,99203.47
2018-05-04T18:20:08.273Z,99178.84
2018-05-04T18:22:36.539Z,99203.86
2018-05-04T18:25:04.851Z,99207.09
2018-05-04T18:27:33.325Z,99211.17
2018-05-04T18:30:01.838Z,99209.55
2018-05-04T18:32:30.114Z,99207.37
2018-05-04T18:34:58.382Z,99215.61
2018-05-04T18:37:26.853Z,99210.67
2018-05-04T18:39:55.887Z,99217.95
2018-05-04T18:42:24.228Z,99214.77
2018-05-04T18:44:52.518Z,99216.63
2018-05-04T18:47:20.838Z,99226.53
2018-05-04T18:49:49.118Z,99225.33
2018-05-04T18:52:17.396Z,99235.73
2018-05-04T18:54:45.692Z,99234.11
2018-05-04T18:57:13.933Z,99239.40
2018-05-04T18:59:42.226Z,99239.59
2018-05-04T19:02:10.567Z,99249.84
2018-05-04T19:04:38.945Z,99257.03
2018-05-04T19:07:07.262Z,99268.66
2018-05-04T19:09:35.617Z,99270.22
2018-05-04T19:12:03.990Z,99256.09
2018-05-04T19:14:32.275Z,99269.86
2018-05-04T19:17:00.561Z,99262.37
2018-05-04T19:19:28.881Z,99285.99
2018-05-04T19:21:57.216Z,99282.48
2018-05-04T19:24:25.814Z,99288.94
2018-05-04T19:26:54.140Z,99292.15
2018-05-04T19:29:22.432Z,99285.59
2018-05-04T19:31:50.696Z,99294.47
2018-05-04T19:34:19.485Z,99293.42
2018-05-04T19:36:47.767Z,99294.19
2018-05-04T19:39:16.054Z,99302.48
2018-05-04T19:41:44.338Z,99295.60
2018-05-04T19:44:12.633Z,99297.66
2018-05-04T19:46:40.883Z,99304.90
2018-05-04T19:49:09.248Z,99293.84
2018-05-04T19:51:37.591Z,99307.13
2018-05-04T19:54:06.334Z,99305.89
2018-05-04T19:56:34.623Z,99309.48
2018-05-04T19:59:02.965Z,99302.41
2018-05-04T20:01:31.350Z,99316.52
2018-05-04T20:03:59.930Z,99324.63
2018-05-04T20:06:28.630Z,99325.11
2018-05-04T20:08:56.945Z,99329.38
2018-05-04T20:11:25.201Z,99330.92
2018-05-04T20:13:54.239Z,99332.31
2018-05-04T20:16:22.591Z,99334.47
2018-05-04T20:18:51.520Z,99335.50
2018-05-04T20:21:19.791Z,99336.73
2018-05-04T20:23:48.606Z,99337.61
2018-05-04T20:26:16.926Z,99340.58
2018-05-04T20:28:45.242Z,99343.97
2018-05-04T20:31:13.539Z,99338.77
2018-05-04T20:33:41.809Z,99337.27
2018-05-04T20:36:10.134Z,99337.41
2018-05-04T20:38:38.430Z,99334.48
2018-05-04T20:41:06.714Z,99329.36
2018-05-04T20:43:35.080Z,99337.83
2018-05-04T20:46:03.423Z,99335.23
2018-05-04T20:48:31.691Z,99340.20
2018-05-04T20:50:59.987Z,99344.95
2018-05-04T20:53:28.350Z,99338.50
2018-05-04T20:55:57.850Z,99346.19
2018-05-04T20:58:27.088Z,99346.94
2018-05-04T21:00:55.571Z,99344.43
2018-05-04T21:03:23.841Z,99345.73
2018-05-04T21:05:52.109Z,99339.61
2018-05-04T21:08:20.439Z,99355.27
2018-05-04T21:10:49.318Z,99309.18
2018-05-04T21:13:17.731Z,99357.86
2018-05-04T21:15:46.020Z,99355.59
2018-05-04T21:18:14.297Z,99359.16
2018-05-04T21:20:42.578Z,99355.11
2018-05-04T21:23:10.887Z,99362.56
2018-05-04T21:25:39.157Z,99359.77
2018-05-04T21:28:07.471Z,99361.12
2018-05-04T21:30:35.768Z,99361.66
2018-05-04T21:33:04.230Z,99362.33
2018-05-04T21:35:32.591Z,99368.17
2018-05-04T21:38:00.940Z,99371.77
2018-05-04T21:40:29.259Z,99363.25
2018-05-04T21:42:58.427Z,99369.52
2018-05-04T21:45:26.731Z,99368.84
2018-05-04T21:47:54.994Z,99375.84
2018-05-04T21:50:23.305Z,99375.37
2018-05-04T21:52:51.639Z,99375.81
2018-05-04T21:55:19.949Z,99371.49
2018-05-04T21:57:48.222Z,99376.66
2018-05-04T22:00:17.414Z,99373.59
2018-05-04T22:02:45.677Z,99373.48
2018-05-04T22:05:14.560Z,99377.84
2018-05-04T22:07:42.899Z,99377.86
2018-05-04T22:10:12.981Z,99378.69
2018-05-04T22:12:42.117Z,99375.71
2018-05-04T22:15:11.142Z,99384.69
2018-05-04T22:17:39.403Z,99383.44
2018-05-04T22:20:07.758Z,99382.00
2018-05-04T22:22:36.071Z,99394.19
2018-05-04T22:25:04.374Z,99392.85
2018-05-04T22:27:32.627Z,99384.20
2018-05-04T22:30:00.916Z,99388.48
2018-05-04T22:32:29.222Z,99389.92
2018-05-04T22:34:58.393Z,99393.63
2018-05-04T22:37:26.666Z,99388.37
2018-05-04T22:39:58.570Z,99388.63
2018-05-04T22:42:26.895Z,99383.13
2018-05-04T22:44:56.036Z,99388.74
2018-05-04T22:47:24.349Z,99386.61
2018-05-04T22:49:52.577Z,99381.88
2018-05-04T22:52:20.963Z,99384.44
2018-05-04T22:54:49.233Z,99389.15
2018-05-04T22:57:17.517Z,99388.68
2018-05-04T22:59:46.284Z,99395.75
2018-05-04T23:02:14.607Z,99390.58
2018-05-04T23:04:42.928Z,99401.03
2018-05-04T23:07:11.424Z,99400.09
2018-05-04T23:09:39.720Z,99400.45
2018-05-04T23:12:07.997Z,99395.18
2018-05-04T23:14:36.325Z,99391.08
2018-05-04T23:17:04.950Z,99393.41
2018-05-04T23:19:33.210Z,99387.67
2018-05-04T23:22:01.612Z,99392.11
2018-05-04T23:24:29.964Z,99393.00
2018-05-04T23:26:58.239Z,99395.02
2018-05-04T23:29:26.708Z,99400.99
2018-05-04T23:31:55.003Z,99399.88
2018-05-04T23:34:23.385Z,99402.25
2018-05-04T23:36:51.621Z,99396.19
2018-05-04T23:39:19.922Z,99405.59
2018-05-04T23:41:48.204Z,99407.09
2018-05-04T23:44:16.486Z,99413.04
2018-05-04T23:46:44.783Z,99406.16
2018-05-04T23:49:13.125Z,99400.67
2018-05-04T23:51:41.512Z,99405.95
2018-05-04T23:54:09.822Z,99398.94
2018-05-04T23:56:38.125Z,99404.33
2018-05-04T23:59:06.473Z,99404.27
